sensor_id;sensor_type;location;lat;lon;timestamp;P1;durP1;ratioP1;P2;durP2;ratioP2
10059;SDS011;5069;49.306;8.636;2024-03-08T00:01:52;20.93;;;14.33;;
10059;SDS011;5069;49.306;8.636;2024-03-08T00:04:53;19.37;;;14.17;;
10059;SDS011;5069;49.306;8.636;2024-03-08T00:07:55;19.03;;;13.93;;
10059;SDS011;5069;49.306;8.636;2024-03-08T00:10:56;18.63;;;13.27;;
10059;SDS011;5069;49.306;8.636;2024-03-08T00:13:58;20.10;;;13.60;;
10059;SDS011;5069;49.306;8.636;2024-03-08T00:16:59;19.30;;;14.43;;
10059;SDS011;5069;49.306;8.636;2024-03-08T00:20:01;19.40;;;14.27;;
10059;SDS011;5069;49.306;8.636;2024-03-08T00:23:04;21.70;;;14.90;;
10059;SDS011;5069;49.306;8.636;2024-03-08T00:26:06;20.57;;;14.80;;
10059;SDS011;5069;49.306;8.636;2024-03-08T00:29:07;20.87;;;14.63;;
10059;SDS011;5069;49.306;8.636;2024-03-08T00:32:09;20.50;;;14.53;;
10059;SDS011;5069;49.306;8.636;2024-03-08T00:35:12;20.57;;;14.23;;
10059;SDS011;5069;49.306;8.636;2024-03-08T00:38:14;23.17;;;15.07;;
10059;SDS011;5069;49.306;8.636;2024-03-08T00:41:15;21.87;;;14.60;;
10059;SDS011;5069;49.306;8.636;2024-03-08T00:44:17;20.30;;;14.63;;
10059;SDS011;5069;49.306;8.636;2024-03-08T00:47:18;19.83;;;14.27;;
10059;SDS011;5069;49.306;8.636;2024-03-08T00:50:20;20.97;;;14.20;;
10059;SDS011;5069;49.306;8.636;2024-03-08T00:53:22;19.43;;;14.07;;
10059;SDS011;5069;49.306;8.636;2024-03-08T00:56:23;21.67;;;15.07;;
10059;SDS011;5069;49.306;8.636;2024-03-08T00:59:26;21.07;;;14.40;;
10059;SDS011;5069;49.306;8.636;2024-03-08T01:02:28;20.03;;;14.47;;
10059;SDS011;5069;49.306;8.636;2024-03-08T01:05:30;21.20;;;14.67;;
10059;SDS011;5069;49.306;8.636;2024-03-08T01:08:32;21.80;;;14.80;;
10059;SDS011;5069;49.306;8.636;2024-03-08T01:11:33;19.43;;;14.30;;
10059;SDS011;5069;49.306;8.636;2024-03-08T01:14:35;21.77;;;15.27;;
10059;SDS011;5069;49.306;8.636;2024-03-08T01:17:37;23.53;;;15.33;;
10059;SDS011;5069;49.306;8.636;2024-03-08T01:20:39;19.70;;;14.50;;
10059;SDS011;5069;49.306;8.636;2024-03-08T01:23:42;21.17;;;15.17;;
10059;SDS011;5069;49.306;8.636;2024-03-08T01:26:44;20.57;;;14.77;;
10059;SDS011;5069;49.306;8.636;2024-03-08T01:29:46;19.40;;;14.60;;
10059;SDS011;5069;49.306;8.636;2024-03-08T01:32:47;20.97;;;14.13;;
10059;SDS011;5069;49.306;8.636;2024-03-08T01:35:50;20.90;;;14.53;;
10059;SDS011;5069;49.306;8.636;2024-03-08T01:38:51;22.57;;;14.93;;
10059;SDS011;5069;49.306;8.636;2024-03-08T01:41:53;22.93;;;15.17;;
10059;SDS011;5069;49.306;8.636;2024-03-08T01:44:55;20.67;;;15.27;;
10059;SDS011;5069;49.306;8.636;2024-03-08T01:47:57;20.23;;;14.30;;
10059;SDS011;5069;49.306;8.636;2024-03-08T01:50:59;20.63;;;14.30;;
10059;SDS011;5069;49.306;8.636;2024-03-08T01:54:01;19.63;;;13.93;;
10059;SDS011;5069;49.306;8.636;2024-03-08T01:57:05;21.87;;;15.10;;
10059;SDS011;5069;49.306;8.636;2024-03-08T02:00:08;22.87;;;15.27;;
10059;SDS011;5069;49.306;8.636;2024-03-08T02:03:12;20.60;;;14.80;;
10059;SDS011;5069;49.306;8.636;2024-03-08T02:06:13;22.23;;;15.27;;
10059;SDS011;5069;49.306;8.636;2024-03-08T02:09:18;21.20;;;14.40;;
10059;SDS011;5069;49.306;8.636;2024-03-08T02:12:20;20.63;;;15.53;;
10059;SDS011;5069;49.306;8.636;2024-03-08T02:15:22;19.07;;;15.00;;
10059;SDS011;5069;49.306;8.636;2024-03-08T02:18:24;19.50;;;14.63;;
10059;SDS011;5069;49.306;8.636;2024-03-08T02:21:26;20.77;;;15.17;;
10059;SDS011;5069;49.306;8.636;2024-03-08T02:24:28;21.30;;;14.90;;
10059;SDS011;5069;49.306;8.636;2024-03-08T02:27:29;25.30;;;15.60;;
10059;SDS011;5069;49.306;8.636;2024-03-08T02:30:31;23.03;;;15.93;;
10059;SDS011;5069;49.306;8.636;2024-03-08T02:33:32;24.23;;;16.30;;
10059;SDS011;5069;49.306;8.636;2024-03-08T02:36:34;23.57;;;15.57;;
10059;SDS011;5069;49.306;8.636;2024-03-08T02:39:36;20.87;;;15.70;;
10059;SDS011;5069;49.306;8.636;2024-03-08T02:42:37;20.80;;;14.60;;
10059;SDS011;5069;49.306;8.636;2024-03-08T02:45:39;24.13;;;15.33;;
10059;SDS011;5069;49.306;8.636;2024-03-08T02:48:40;20.77;;;15.07;;
10059;SDS011;5069;49.306;8.636;2024-03-08T02:51:42;22.93;;;15.20;;
10059;SDS011;5069;49.306;8.636;2024-03-08T02:54:43;20.33;;;14.93;;
10059;SDS011;5069;49.306;8.636;2024-03-08T02:57:46;22.17;;;15.57;;
10059;SDS011;5069;49.306;8.636;2024-03-08T03:00:50;22.30;;;14.97;;
10059;SDS011;5069;49.306;8.636;2024-03-08T03:03:51;21.80;;;15.00;;
10059;SDS011;5069;49.306;8.636;2024-03-08T03:06:53;22.73;;;16.37;;
10059;SDS011;5069;49.306;8.636;2024-03-08T03:09:56;23.33;;;15.30;;
10059;SDS011;5069;49.306;8.636;2024-03-08T03:12:57;20.13;;;15.37;;
10059;SDS011;5069;49.306;8.636;2024-03-08T03:15:59;20.27;;;14.90;;
10059;SDS011;5069;49.306;8.636;2024-03-08T03:19:00;23.10;;;15.53;;
10059;SDS011;5069;49.306;8.636;2024-03-08T03:22:04;22.50;;;15.37;;
10059;SDS011;5069;49.306;8.636;2024-03-08T03:25:07;22.23;;;15.03;;
10059;SDS011;5069;49.306;8.636;2024-03-08T03:28:10;20.17;;;14.13;;
10059;SDS011;5069;49.306;8.636;2024-03-08T03:31:15;20.63;;;15.07;;
10059;SDS011;5069;49.306;8.636;2024-03-08T03:34:18;20.93;;;14.50;;
10059;SDS011;5069;49.306;8.636;2024-03-08T03:37:20;24.70;;;14.83;;
10059;SDS011;5069;49.306;8.636;2024-03-08T03:40:21;25.57;;;14.87;;
10059;SDS011;5069;49.306;8.636;2024-03-08T03:43:25;20.23;;;14.77;;
10059;SDS011;5069;49.306;8.636;2024-03-08T03:46:27;21.67;;;14.87;;
10059;SDS011;5069;49.306;8.636;2024-03-08T03:49:28;21.57;;;14.37;;
10059;SDS011;5069;49.306;8.636;2024-03-08T03:52:30;19.93;;;14.80;;
10059;SDS011;5069;49.306;8.636;2024-03-08T03:55:31;20.97;;;15.30;;
10059;SDS011;5069;49.306;8.636;2024-03-08T03:58:33;20.73;;;14.70;;
10059;SDS011;5069;49.306;8.636;2024-03-08T04:01:34;22.00;;;15.93;;
10059;SDS011;5069;49.306;8.636;2024-03-08T04:04:39;21.17;;;15.37;;
10059;SDS011;5069;49.306;8.636;2024-03-08T04:07:41;21.87;;;14.87;;
10059;SDS011;5069;49.306;8.636;2024-03-08T04:10:42;25.10;;;15.30;;
10059;SDS011;5069;49.306;8.636;2024-03-08T04:13:44;22.73;;;15.23;;
10059;SDS011;5069;49.306;8.636;2024-03-08T04:16:45;21.83;;;15.07;;
10059;SDS011;5069;49.306;8.636;2024-03-08T04:19:49;25.97;;;15.50;;
10059;SDS011;5069;49.306;8.636;2024-03-08T04:22:51;22.83;;;15.93;;
10059;SDS011;5069;49.306;8.636;2024-03-08T04:25:52;21.73;;;14.63;;
10059;SDS011;5069;49.306;8.636;2024-03-08T04:28:54;21.87;;;14.53;;
10059;SDS011;5069;49.306;8.636;2024-03-08T04:31:55;20.60;;;15.23;;
10059;SDS011;5069;49.306;8.636;2024-03-08T04:34:57;22.60;;;15.70;;
10059;SDS011;5069;49.306;8.636;2024-03-08T04:37:59;21.63;;;14.83;;
10059;SDS011;5069;49.306;8.636;2024-03-08T04:41:00;23.27;;;15.63;;
10059;SDS011;5069;49.306;8.636;2024-03-08T04:44:03;25.13;;;15.97;;
10059;SDS011;5069;49.306;8.636;2024-03-08T04:47:04;23.03;;;16.33;;
10059;SDS011;5069;49.306;8.636;2024-03-08T04:50:07;21.33;;;15.50;;
10059;SDS011;5069;49.306;8.636;2024-03-08T04:53:10;23.00;;;16.00;;
10059;SDS011;5069;49.306;8.636;2024-03-08T04:56:11;23.37;;;15.57;;
10059;SDS011;5069;49.306;8.636;2024-03-08T04:59:13;23.53;;;15.30;;
10059;SDS011;5069;49.306;8.636;2024-03-08T05:02:14;23.73;;;15.47;;
10059;SDS011;5069;49.306;8.636;2024-03-08T05:05:16;24.00;;;16.30;;
10059;SDS011;5069;49.306;8.636;2024-03-08T05:08:18;22.33;;;15.47;;
10059;SDS011;5069;49.306;8.636;2024-03-08T05:11:20;25.30;;;16.13;;
10059;SDS011;5069;49.306;8.636;2024-03-08T05:14:21;23.27;;;15.87;;
10059;SDS011;5069;49.306;8.636;2024-03-08T05:17:23;23.30;;;15.53;;
10059;SDS011;5069;49.306;8.636;2024-03-08T05:20:25;25.43;;;15.53;;
10059;SDS011;5069;49.306;8.636;2024-03-08T05:23:27;27.30;;;16.00;;
10059;SDS011;5069;49.306;8.636;2024-03-08T05:26:28;27.17;;;16.53;;
10059;SDS011;5069;49.306;8.636;2024-03-08T05:29:31;24.97;;;16.60;;
10059;SDS011;5069;49.306;8.636;2024-03-08T05:32:33;22.60;;;15.50;;
10059;SDS011;5069;49.306;8.636;2024-03-08T05:35:36;25.13;;;16.73;;
10059;SDS011;5069;49.306;8.636;2024-03-08T05:38:38;24.00;;;16.07;;
10059;SDS011;5069;49.306;8.636;2024-03-08T05:41:39;23.83;;;16.30;;
10059;SDS011;5069;49.306;8.636;2024-03-08T05:44:41;28.33;;;16.83;;
10059;SDS011;5069;49.306;8.636;2024-03-08T05:47:43;25.33;;;16.37;;
10059;SDS011;5069;49.306;8.636;2024-03-08T05:50:45;24.90;;;16.63;;
10059;SDS011;5069;49.306;8.636;2024-03-08T05:53:46;28.43;;;16.80;;
10059;SDS011;5069;49.306;8.636;2024-03-08T05:56:48;25.90;;;16.63;;
10059;SDS011;5069;49.306;8.636;2024-03-08T05:59:49;25.00;;;16.50;;
10059;SDS011;5069;49.306;8.636;2024-03-08T06:02:51;26.13;;;16.60;;
10059;SDS011;5069;49.306;8.636;2024-03-08T06:05:53;25.73;;;17.03;;
10059;SDS011;5069;49.306;8.636;2024-03-08T06:08:54;24.37;;;16.00;;
10059;SDS011;5069;49.306;8.636;2024-03-08T06:12:00;22.97;;;16.00;;
10059;SDS011;5069;49.306;8.636;2024-03-08T06:15:03;23.13;;;15.70;;
10059;SDS011;5069;49.306;8.636;2024-03-08T06:18:05;27.50;;;16.23;;
10059;SDS011;5069;49.306;8.636;2024-03-08T06:21:08;23.97;;;16.17;;
10059;SDS011;5069;49.306;8.636;2024-03-08T06:24:13;25.43;;;17.27;;
10059;SDS011;5069;49.306;8.636;2024-03-08T06:27:16;23.37;;;16.37;;
10059;SDS011;5069;49.306;8.636;2024-03-08T06:30:18;22.90;;;16.03;;
10059;SDS011;5069;49.306;8.636;2024-03-08T06:33:21;23.53;;;15.90;;
10059;SDS011;5069;49.306;8.636;2024-03-08T06:36:23;25.43;;;16.13;;
10059;SDS011;5069;49.306;8.636;2024-03-08T06:39:25;24.83;;;16.63;;
10059;SDS011;5069;49.306;8.636;2024-03-08T06:42:29;24.87;;;16.03;;
10059;SDS011;5069;49.306;8.636;2024-03-08T06:45:36;24.37;;;16.03;;
10059;SDS011;5069;49.306;8.636;2024-03-08T06:48:39;23.67;;;15.97;;
10059;SDS011;5069;49.306;8.636;2024-03-08T06:51:41;24.77;;;16.67;;
10059;SDS011;5069;49.306;8.636;2024-03-08T06:54:43;23.93;;;17.27;;
10059;SDS011;5069;49.306;8.636;2024-03-08T06:57:44;25.43;;;16.40;;
10059;SDS011;5069;49.306;8.636;2024-03-08T07:00:46;25.13;;;16.67;;
10059;SDS011;5069;49.306;8.636;2024-03-08T07:03:47;23.10;;;16.73;;
10059;SDS011;5069;49.306;8.636;2024-03-08T07:06:49;22.30;;;15.73;;
10059;SDS011;5069;49.306;8.636;2024-03-08T07:09:51;24.13;;;17.03;;
10059;SDS011;5069;49.306;8.636;2024-03-08T07:12:52;26.13;;;17.30;;
10059;SDS011;5069;49.306;8.636;2024-03-08T07:15:54;23.37;;;16.97;;
10059;SDS011;5069;49.306;8.636;2024-03-08T07:18:56;25.43;;;16.50;;
10059;SDS011;5069;49.306;8.636;2024-03-08T07:22:00;25.00;;;17.37;;
10059;SDS011;5069;49.306;8.636;2024-03-08T07:25:02;27.43;;;17.10;;
10059;SDS011;5069;49.306;8.636;2024-03-08T07:28:21;22.53;;;16.20;;
10059;SDS011;5069;49.306;8.636;2024-03-08T07:31:22;22.03;;;16.20;;
10059;SDS011;5069;49.306;8.636;2024-03-08T07:34:26;24.87;;;16.83;;
10059;SDS011;5069;49.306;8.636;2024-03-08T07:37:28;22.93;;;17.10;;
10059;SDS011;5069;49.306;8.636;2024-03-08T07:40:30;25.63;;;17.73;;
10059;SDS011;5069;49.306;8.636;2024-03-08T07:43:31;24.73;;;16.70;;
10059;SDS011;5069;49.306;8.636;2024-03-08T07:46:34;26.40;;;17.27;;
10059;SDS011;5069;49.306;8.636;2024-03-08T07:49:36;22.03;;;17.10;;
10059;SDS011;5069;49.306;8.636;2024-03-08T07:52:40;24.73;;;17.33;;
10059;SDS011;5069;49.306;8.636;2024-03-08T07:55:43;27.43;;;16.97;;
10059;SDS011;5069;49.306;8.636;2024-03-08T07:58:45;24.53;;;16.77;;
10059;SDS011;5069;49.306;8.636;2024-03-08T08:01:47;25.33;;;18.20;;
10059;SDS011;5069;49.306;8.636;2024-03-08T08:04:49;25.17;;;17.20;;
10059;SDS011;5069;49.306;8.636;2024-03-08T08:07:51;24.63;;;16.80;;
10059;SDS011;5069;49.306;8.636;2024-03-08T08:10:54;21.00;;;15.77;;
10059;SDS011;5069;49.306;8.636;2024-03-08T08:13:56;23.57;;;16.60;;
10059;SDS011;5069;49.306;8.636;2024-03-08T08:16:58;23.07;;;16.47;;
10059;SDS011;5069;49.306;8.636;2024-03-08T08:20:02;25.47;;;15.37;;
10059;SDS011;5069;49.306;8.636;2024-03-08T08:23:06;23.07;;;16.83;;
10059;SDS011;5069;49.306;8.636;2024-03-08T08:26:08;24.40;;;16.27;;
10059;SDS011;5069;49.306;8.636;2024-03-08T08:29:09;23.10;;;16.07;;
10059;SDS011;5069;49.306;8.636;2024-03-08T08:32:11;21.83;;;16.03;;
10059;SDS011;5069;49.306;8.636;2024-03-08T08:35:12;24.00;;;16.00;;
10059;SDS011;5069;49.306;8.636;2024-03-08T08:38:14;21.57;;;15.43;;
10059;SDS011;5069;49.306;8.636;2024-03-08T08:41:16;22.83;;;16.17;;
10059;SDS011;5069;49.306;8.636;2024-03-08T08:44:18;20.07;;;15.43;;
10059;SDS011;5069;49.306;8.636;2024-03-08T08:47:20;21.97;;;15.57;;
10059;SDS011;5069;49.306;8.636;2024-03-08T08:50:21;21.73;;;15.50;;
10059;SDS011;5069;49.306;8.636;2024-03-08T08:53:27;23.17;;;16.43;;
10059;SDS011;5069;49.306;8.636;2024-03-08T08:56:29;20.90;;;15.03;;
10059;SDS011;5069;49.306;8.636;2024-03-08T08:59:30;25.20;;;15.83;;
10059;SDS011;5069;49.306;8.636;2024-03-08T09:02:32;20.50;;;15.10;;
10059;SDS011;5069;49.306;8.636;2024-03-08T09:05:34;21.63;;;14.80;;
10059;SDS011;5069;49.306;8.636;2024-03-08T09:08:39;20.27;;;15.07;;
10059;SDS011;5069;49.306;8.636;2024-03-08T09:11:41;19.40;;;14.70;;
10059;SDS011;5069;49.306;8.636;2024-03-08T09:14:43;20.10;;;14.77;;
10059;SDS011;5069;49.306;8.636;2024-03-08T09:17:44;20.07;;;14.50;;
10059;SDS011;5069;49.306;8.636;2024-03-08T09:20:46;21.40;;;14.90;;
10059;SDS011;5069;49.306;8.636;2024-03-08T09:23:48;21.40;;;15.17;;
10059;SDS011;5069;49.306;8.636;2024-03-08T09:26:49;20.43;;;15.20;;
10059;SDS011;5069;49.306;8.636;2024-03-08T09:29:51;23.07;;;15.43;;
10059;SDS011;5069;49.306;8.636;2024-03-08T09:32:52;22.00;;;15.50;;
10059;SDS011;5069;49.306;8.636;2024-03-08T09:35:56;19.70;;;14.70;;
10059;SDS011;5069;49.306;8.636;2024-03-08T09:39:04;20.83;;;15.23;;
10059;SDS011;5069;49.306;8.636;2024-03-08T09:42:08;21.87;;;15.27;;
10059;SDS011;5069;49.306;8.636;2024-03-08T09:45:10;24.03;;;15.40;;
10059;SDS011;5069;49.306;8.636;2024-03-08T09:48:12;18.50;;;14.50;;
10059;SDS011;5069;49.306;8.636;2024-03-08T09:51:15;20.23;;;14.97;;
10059;SDS011;5069;49.306;8.636;2024-03-08T09:54:17;22.40;;;15.57;;
10059;SDS011;5069;49.306;8.636;2024-03-08T09:57:25;18.90;;;14.70;;
10059;SDS011;5069;49.306;8.636;2024-03-08T10:00:26;22.67;;;16.13;;
10059;SDS011;5069;49.306;8.636;2024-03-08T10:03:28;22.10;;;15.73;;
10059;SDS011;5069;49.306;8.636;2024-03-08T10:06:30;20.47;;;15.20;;
10059;SDS011;5069;49.306;8.636;2024-03-08T10:09:35;21.63;;;15.67;;
10059;SDS011;5069;49.306;8.636;2024-03-08T10:12:37;22.20;;;16.20;;
10059;SDS011;5069;49.306;8.636;2024-03-08T10:15:40;25.20;;;15.80;;
10059;SDS011;5069;49.306;8.636;2024-03-08T10:18:41;20.17;;;15.10;;
10059;SDS011;5069;49.306;8.636;2024-03-08T10:21:49;20.77;;;15.40;;
10059;SDS011;5069;49.306;8.636;2024-03-08T10:24:53;20.37;;;15.03;;
10059;SDS011;5069;49.306;8.636;2024-03-08T10:27:55;20.10;;;15.47;;
10059;SDS011;5069;49.306;8.636;2024-03-08T10:30:56;21.03;;;15.63;;
10059;SDS011;5069;49.306;8.636;2024-03-08T10:33:59;20.13;;;14.97;;
10059;SDS011;5069;49.306;8.636;2024-03-08T10:37:03;21.00;;;15.57;;
10059;SDS011;5069;49.306;8.636;2024-03-08T10:40:05;23.47;;;15.60;;
10059;SDS011;5069;49.306;8.636;2024-03-08T10:43:19;23.07;;;14.97;;
10059;SDS011;5069;49.306;8.636;2024-03-08T10:46:30;19.70;;;14.33;;
10059;SDS011;5069;49.306;8.636;2024-03-08T10:49:38;21.17;;;14.87;;
10059;SDS011;5069;49.306;8.636;2024-03-08T10:52:43;24.90;;;15.40;;
10059;SDS011;5069;49.306;8.636;2024-03-08T10:55:45;19.23;;;14.63;;
10059;SDS011;5069;49.306;8.636;2024-03-08T10:58:48;21.47;;;15.37;;
10059;SDS011;5069;49.306;8.636;2024-03-08T11:01:50;19.77;;;14.60;;
10059;SDS011;5069;49.306;8.636;2024-03-08T11:04:52;19.53;;;14.93;;
10059;SDS011;5069;49.306;8.636;2024-03-08T11:07:57;18.47;;;14.07;;
10059;SDS011;5069;49.306;8.636;2024-03-08T11:11:00;20.77;;;15.13;;
10059;SDS011;5069;49.306;8.636;2024-03-08T11:14:02;21.13;;;14.10;;
10059;SDS011;5069;49.306;8.636;2024-03-08T11:17:04;21.43;;;15.97;;
10059;SDS011;5069;49.306;8.636;2024-03-08T11:23:16;20.57;;;14.77;;
10059;SDS011;5069;49.306;8.636;2024-03-08T11:26:24;18.33;;;14.33;;
10059;SDS011;5069;49.306;8.636;2024-03-08T11:32:36;19.23;;;14.73;;
10059;SDS011;5069;49.306;8.636;2024-03-08T11:35:39;21.27;;;15.30;;
10059;SDS011;5069;49.306;8.636;2024-03-08T11:38:42;24.90;;;15.60;;
10059;SDS011;5069;49.306;8.636;2024-03-08T11:41:45;20.50;;;15.20;;
10059;SDS011;5069;49.306;8.636;2024-03-08T11:44:47;18.50;;;14.20;;
10059;SDS011;5069;49.306;8.636;2024-03-08T11:47:51;20.77;;;14.43;;
10059;SDS011;5069;49.306;8.636;2024-03-08T11:51:00;19.70;;;14.73;;
10059;SDS011;5069;49.306;8.636;2024-03-08T11:54:03;19.67;;;14.70;;
10059;SDS011;5069;49.306;8.636;2024-03-08T11:57:04;21.33;;;14.87;;
10059;SDS011;5069;49.306;8.636;2024-03-08T12:00:11;19.60;;;14.77;;
10059;SDS011;5069;49.306;8.636;2024-03-08T12:03:23;21.07;;;14.57;;
10059;SDS011;5069;49.306;8.636;2024-03-08T12:06:25;19.50;;;14.60;;
10059;SDS011;5069;49.306;8.636;2024-03-08T12:09:28;21.00;;;14.80;;
10059;SDS011;5069;49.306;8.636;2024-03-08T12:12:30;20.53;;;15.03;;
10059;SDS011;5069;49.306;8.636;2024-03-08T12:15:32;19.60;;;14.63;;
10059;SDS011;5069;49.306;8.636;2024-03-08T12:18:36;20.07;;;14.50;;
10059;SDS011;5069;49.306;8.636;2024-03-08T12:21:39;19.13;;;14.77;;
10059;SDS011;5069;49.306;8.636;2024-03-08T12:25:02;19.10;;;14.70;;
10059;SDS011;5069;49.306;8.636;2024-03-08T12:28:09;19.90;;;15.17;;
10059;SDS011;5069;49.306;8.636;2024-03-08T12:31:14;22.30;;;15.93;;
10059;SDS011;5069;49.306;8.636;2024-03-08T12:34:21;21.70;;;15.30;;
10059;SDS011;5069;49.306;8.636;2024-03-08T12:37:23;19.60;;;15.57;;
10059;SDS011;5069;49.306;8.636;2024-03-08T12:40:25;20.20;;;15.73;;
10059;SDS011;5069;49.306;8.636;2024-03-08T12:43:28;20.97;;;15.63;;
10059;SDS011;5069;49.306;8.636;2024-03-08T12:46:35;21.93;;;16.10;;
10059;SDS011;5069;49.306;8.636;2024-03-08T12:49:36;20.83;;;15.77;;
10059;SDS011;5069;49.306;8.636;2024-03-08T12:52:38;23.63;;;17.33;;
10059;SDS011;5069;49.306;8.636;2024-03-08T12:55:40;22.13;;;16.43;;
10059;SDS011;5069;49.306;8.636;2024-03-08T12:58:41;20.40;;;16.13;;
10059;SDS011;5069;49.306;8.636;2024-03-08T13:01:44;23.17;;;17.03;;
10059;SDS011;5069;49.306;8.636;2024-03-08T13:04:45;22.90;;;15.80;;
10059;SDS011;5069;49.306;8.636;2024-03-08T13:07:48;21.73;;;16.43;;
10059;SDS011;5069;49.306;8.636;2024-03-08T13:10:50;20.87;;;16.17;;
10059;SDS011;5069;49.306;8.636;2024-03-08T13:13:52;21.57;;;16.07;;
10059;SDS011;5069;49.306;8.636;2024-03-08T13:16:54;20.23;;;16.40;;
10059;SDS011;5069;49.306;8.636;2024-03-08T13:19:56;21.00;;;16.13;;
10059;SDS011;5069;49.306;8.636;2024-03-08T13:22:59;21.43;;;16.00;;
10059;SDS011;5069;49.306;8.636;2024-03-08T13:26:03;22.20;;;17.40;;
10059;SDS011;5069;49.306;8.636;2024-03-08T13:29:06;20.13;;;15.73;;
10059;SDS011;5069;49.306;8.636;2024-03-08T13:32:08;19.60;;;15.17;;
10059;SDS011;5069;49.306;8.636;2024-03-08T13:35:13;22.57;;;16.43;;
10059;SDS011;5069;49.306;8.636;2024-03-08T13:38:15;22.80;;;17.20;;
10059;SDS011;5069;49.306;8.636;2024-03-08T13:41:16;20.80;;;16.27;;
10059;SDS011;5069;49.306;8.636;2024-03-08T13:44:21;20.90;;;16.37;;
10059;SDS011;5069;49.306;8.636;2024-03-08T13:47:23;19.50;;;15.57;;
10059;SDS011;5069;49.306;8.636;2024-03-08T13:50:25;20.37;;;15.60;;
10059;SDS011;5069;49.306;8.636;2024-03-08T13:53:28;18.20;;;15.07;;
10059;SDS011;5069;49.306;8.636;2024-03-08T13:56:29;20.40;;;15.97;;
10059;SDS011;5069;49.306;8.636;2024-03-08T13:59:32;20.23;;;15.63;;
10059;SDS011;5069;49.306;8.636;2024-03-08T14:02:36;20.77;;;16.00;;
10059;SDS011;5069;49.306;8.636;2024-03-08T14:05:41;20.70;;;15.83;;
10059;SDS011;5069;49.306;8.636;2024-03-08T14:08:43;20.40;;;15.17;;
10059;SDS011;5069;49.306;8.636;2024-03-08T14:11:45;20.53;;;16.03;;
10059;SDS011;5069;49.306;8.636;2024-03-08T14:14:47;19.63;;;15.37;;
10059;SDS011;5069;49.306;8.636;2024-03-08T14:17:52;20.70;;;16.67;;
10059;SDS011;5069;49.306;8.636;2024-03-08T14:20:54;19.90;;;15.67;;
10059;SDS011;5069;49.306;8.636;2024-03-08T14:23:56;17.97;;;14.47;;
10059;SDS011;5069;49.306;8.636;2024-03-08T14:26:57;19.00;;;15.43;;
10059;SDS011;5069;49.306;8.636;2024-03-08T14:30:00;18.90;;;14.63;;
10059;SDS011;5069;49.306;8.636;2024-03-08T14:33:01;17.70;;;15.07;;
10059;SDS011;5069;49.306;8.636;2024-03-08T14:36:04;19.87;;;15.73;;
10059;SDS011;5069;49.306;8.636;2024-03-08T14:39:07;21.53;;;15.73;;
10059;SDS011;5069;49.306;8.636;2024-03-08T14:42:08;18.57;;;14.97;;
10059;SDS011;5069;49.306;8.636;2024-03-08T14:45:14;17.50;;;14.67;;
10059;SDS011;5069;49.306;8.636;2024-03-08T14:48:16;19.17;;;15.30;;
10059;SDS011;5069;49.306;8.636;2024-03-08T14:51:18;19.20;;;15.07;;
10059;SDS011;5069;49.306;8.636;2024-03-08T14:54:22;21.87;;;15.10;;
10059;SDS011;5069;49.306;8.636;2024-03-08T14:57:24;17.67;;;14.20;;
10059;SDS011;5069;49.306;8.636;2024-03-08T15:00:25;19.40;;;15.43;;
10059;SDS011;5069;49.306;8.636;2024-03-08T15:03:37;20.83;;;15.30;;
10059;SDS011;5069;49.306;8.636;2024-03-08T15:06:38;18.97;;;15.20;;
10059;SDS011;5069;49.306;8.636;2024-03-08T15:09:40;18.63;;;14.87;;
10059;SDS011;5069;49.306;8.636;2024-03-08T15:12:44;21.50;;;15.43;;
10059;SDS011;5069;49.306;8.636;2024-03-08T15:15:52;18.10;;;14.93;;
10059;SDS011;5069;49.306;8.636;2024-03-08T15:18:58;20.60;;;15.47;;
10059;SDS011;5069;49.306;8.636;2024-03-08T15:22:01;19.47;;;15.63;;
10059;SDS011;5069;49.306;8.636;2024-03-08T15:25:03;20.37;;;15.73;;
10059;SDS011;5069;49.306;8.636;2024-03-08T15:28:04;22.23;;;15.83;;
10059;SDS011;5069;49.306;8.636;2024-03-08T15:31:14;19.10;;;15.17;;
10059;SDS011;5069;49.306;8.636;2024-03-08T15:34:15;18.60;;;14.43;;
10059;SDS011;5069;49.306;8.636;2024-03-08T15:37:17;18.87;;;14.23;;
10059;SDS011;5069;49.306;8.636;2024-03-08T15:40:19;19.63;;;15.27;;
10059;SDS011;5069;49.306;8.636;2024-03-08T15:43:24;19.33;;;15.20;;
10059;SDS011;5069;49.306;8.636;2024-03-08T15:46:26;22.17;;;15.20;;
10059;SDS011;5069;49.306;8.636;2024-03-08T15:49:29;21.23;;;14.97;;
10059;SDS011;5069;49.306;8.636;2024-03-08T15:52:31;19.13;;;14.70;;
10059;SDS011;5069;49.306;8.636;2024-03-08T15:55:32;18.40;;;14.40;;
10059;SDS011;5069;49.306;8.636;2024-03-08T15:58:36;19.97;;;15.50;;
10059;SDS011;5069;49.306;8.636;2024-03-08T16:01:38;20.20;;;15.27;;
10059;SDS011;5069;49.306;8.636;2024-03-08T16:04:40;18.93;;;14.67;;
10059;SDS011;5069;49.306;8.636;2024-03-08T16:07:42;22.93;;;15.47;;
10059;SDS011;5069;49.306;8.636;2024-03-08T16:10:44;19.50;;;14.83;;
10059;SDS011;5069;49.306;8.636;2024-03-08T16:13:50;19.43;;;14.67;;
10059;SDS011;5069;49.306;8.636;2024-03-08T16:16:51;19.50;;;14.63;;
10059;SDS011;5069;49.306;8.636;2024-03-08T16:19:53;20.47;;;15.33;;
10059;SDS011;5069;49.306;8.636;2024-03-08T16:22:57;18.37;;;14.07;;
10059;SDS011;5069;49.306;8.636;2024-03-08T16:25:59;19.53;;;14.70;;
10059;SDS011;5069;49.306;8.636;2024-03-08T16:29:01;18.30;;;14.43;;
10059;SDS011;5069;49.306;8.636;2024-03-08T16:32:05;20.17;;;15.60;;
10059;SDS011;5069;49.306;8.636;2024-03-08T16:35:07;22.03;;;15.83;;
10059;SDS011;5069;49.306;8.636;2024-03-08T16:38:12;19.73;;;15.53;;
10059;SDS011;5069;49.306;8.636;2024-03-08T16:41:14;20.57;;;15.70;;
10059;SDS011;5069;49.306;8.636;2024-03-08T16:44:16;20.23;;;15.30;;
10059;SDS011;5069;49.306;8.636;2024-03-08T16:47:20;21.63;;;16.10;;
10059;SDS011;5069;49.306;8.636;2024-03-08T16:50:24;20.47;;;14.83;;
10059;SDS011;5069;49.306;8.636;2024-03-08T16:53:25;20.27;;;15.40;;
10059;SDS011;5069;49.306;8.636;2024-03-08T16:56:27;20.83;;;15.00;;
10059;SDS011;5069;49.306;8.636;2024-03-08T16:59:28;21.20;;;15.23;;
10059;SDS011;5069;49.306;8.636;2024-03-08T17:02:30;21.50;;;15.87;;
10059;SDS011;5069;49.306;8.636;2024-03-08T17:05:32;23.57;;;16.20;;
10059;SDS011;5069;49.306;8.636;2024-03-08T17:08:33;22.97;;;17.00;;
10059;SDS011;5069;49.306;8.636;2024-03-08T17:11:36;21.57;;;15.87;;
10059;SDS011;5069;49.306;8.636;2024-03-08T17:14:38;22.57;;;16.30;;
10059;SDS011;5069;49.306;8.636;2024-03-08T17:17:40;24.37;;;16.03;;
10059;SDS011;5069;49.306;8.636;2024-03-08T17:20:48;22.87;;;14.80;;
10059;SDS011;5069;49.306;8.636;2024-03-08T17:23:50;19.90;;;14.37;;
10059;SDS011;5069;49.306;8.636;2024-03-08T17:26:52;24.07;;;15.83;;
10059;SDS011;5069;49.306;8.636;2024-03-08T17:29:53;21.97;;;15.53;;
10059;SDS011;5069;49.306;8.636;2024-03-08T17:32:59;20.40;;;15.53;;
10059;SDS011;5069;49.306;8.636;2024-03-08T17:36:05;22.90;;;15.90;;
10059;SDS011;5069;49.306;8.636;2024-03-08T17:39:08;21.33;;;14.87;;
10059;SDS011;5069;49.306;8.636;2024-03-08T17:42:19;20.23;;;14.47;;
10059;SDS011;5069;49.306;8.636;2024-03-08T17:45:21;20.97;;;15.33;;
10059;SDS011;5069;49.306;8.636;2024-03-08T17:48:25;20.17;;;14.00;;
10059;SDS011;5069;49.306;8.636;2024-03-08T17:51:26;20.07;;;14.57;;
10059;SDS011;5069;49.306;8.636;2024-03-08T17:54:29;19.30;;;14.60;;
10059;SDS011;5069;49.306;8.636;2024-03-08T17:57:30;19.73;;;14.27;;
10059;SDS011;5069;49.306;8.636;2024-03-08T18:00:32;18.97;;;13.83;;
10059;SDS011;5069;49.306;8.636;2024-03-08T18:03:36;21.10;;;14.37;;
10059;SDS011;5069;49.306;8.636;2024-03-08T18:06:38;20.87;;;15.10;;
10059;SDS011;5069;49.306;8.636;2024-03-08T18:09:42;21.90;;;14.50;;